sensor_id;sensor_type;location;lat;lon;timestamp;temperature;humidity
14357;DHT22;7262;48.764;9.166;2022-12-20T00:02:02;4.70;99.90
14357;DHT22;7262;48.764;9.166;2022-12-20T00:04:29;4.70;99.90
14357;DHT22;7262;48.764;9.166;2022-12-20T00:06:56;4.70;99.90
14357;DHT22;7262;48.764;9.166;2022-12-20T00:09:23;4.60;99.90
14357;DHT22;7262;48.764;9.166;2022-12-20T00:11:50;4.70;99.90
14357;DHT22;7262;48.764;9.166;2022-12-20T00:14:17;4.70;99.90
14357;DHT22;7262;48.764;9.166;2022-12-20T00:16:44;4.70;99.90
14357;DHT22;7262;48.764;9.166;2022-12-20T00:19:13;4.70;99.90
14357;DHT22;7262;48.764;9.166;2022-12-20T00:21:39;4.60;99.90
14357;DHT22;7262;48.764;9.166;2022-12-20T00:24:09;4.60;99.90
14357;DHT22;7262;48.764;9.166;2022-12-20T00:26:37;4.60;99.90
14357;DHT22;7262;48.764;9.166;2022-12-20T00:29:04;4.60;99.90
14357;DHT22;7262;48.764;9.166;2022-12-20T00:31:32;4.60;99.90
14357;DHT22;7262;48.764;9.166;2022-12-20T00:33:59;4.50;99.90
14357;DHT22;7262;48.764;9.166;2022-12-20T00:36:28;4.50;99.90
14357;DHT22;7262;48.764;9.166;2022-12-20T00:38:58;4.40;99.90
14357;DHT22;7262;48.764;9.166;2022-12-20T00:41:26;4.40;99.90
14357;DHT22;7262;48.764;9.166;2022-12-20T00:43:53;4.40;99.90
14357;DHT22;7262;48.764;9.166;2022-12-20T00:46:20;4.50;99.90
14357;DHT22;7262;48.764;9.166;2022-12-20T00:48:49;4.40;99.90
14357;DHT22;7262;48.764;9.166;2022-12-20T00:51:17;4.40;99.90
14357;DHT22;7262;48.764;9.166;2022-12-20T00:53:45;4.40;99.90
14357;DHT22;7262;48.764;9.166;2022-12-20T00:56:12;4.40;99.90
14357;DHT22;7262;48.764;9.166;2022-12-20T00:58:40;4.40;99.90
14357;DHT22;7262;48.764;9.166;2022-12-20T01:01:13;4.40;99.90
14357;DHT22;7262;48.764;9.166;2022-12-20T01:03:40;4.40;99.90
14357;DHT22;7262;48.764;9.166;2022-12-20T01:06:08;4.40;99.90
14357;DHT22;7262;48.764;9.166;2022-12-20T01:08:35;4.40;99.90
14357;DHT22;7262;48.764;9.166;2022-12-20T01:11:04;4.50;99.90
14357;DHT22;7262;48.764;9.166;2022-12-20T01:13:32;4.50;99.90
14357;DHT22;7262;48.764;9.166;2022-12-20T01:16:02;4.60;99.90
14357;DHT22;7262;48.764;9.166;2022-12-20T01:18:29;4.70;99.90
14357;DHT22;7262;48.764;9.166;2022-12-20T01:20:59;4.80;99.90
14357;DHT22;7262;48.764;9.166;2022-12-20T01:23:26;4.80;99.90
14357;DHT22;7262;48.764;9.166;2022-12-20T01:25:56;4.80;99.90
14357;DHT22;7262;48.764;9.166;2022-12-20T01:28:25;4.90;99.90
14357;DHT22;7262;48.764;9.166;2022-12-20T01:30:52;4.90;99.90
14357;DHT22;7262;48.764;9.166;2022-12-20T01:33:19;4.80;99.90
14357;DHT22;7262;48.764;9.166;2022-12-20T01:35:53;4.80;99.90
14357;DHT22;7262;48.764;9.166;2022-12-20T01:38:20;4.90;99.90
14357;DHT22;7262;48.764;9.166;2022-12-20T01:40:47;4.80;99.90
14357;DHT22;7262;48.764;9.166;2022-12-20T01:43:14;4.80;99.90
14357;DHT22;7262;48.764;9.166;2022-12-20T01:45:43;4.80;99.90
14357;DHT22;7262;48.764;9.166;2022-12-20T01:48:11;4.70;99.90
14357;DHT22;7262;48.764;9.166;2022-12-20T01:50:41;4.70;99.90
14357;DHT22;7262;48.764;9.166;2022-12-20T01:53:08;4.70;99.90
14357;DHT22;7262;48.764;9.166;2022-12-20T01:55:35;4.70;99.90
14357;DHT22;7262;48.764;9.166;2022-12-20T01:58:03;4.70;99.90
14357;DHT22;7262;48.764;9.166;2022-12-20T02:00:31;4.70;99.90
14357;DHT22;7262;48.764;9.166;2022-12-20T02:02:59;4.70;99.90
14357;DHT22;7262;48.764;9.166;2022-12-20T02:05:32;4.70;99.90
14357;DHT22;7262;48.764;9.166;2022-12-20T02:07:59;4.80;99.90
14357;DHT22;7262;48.764;9.166;2022-12-20T02:10:26;4.80;99.90
14357;DHT22;7262;48.764;9.166;2022-12-20T02:12:57;4.90;99.90
14357;DHT22;7262;48.764;9.166;2022-12-20T02:15:30;4.90;99.90
14357;DHT22;7262;48.764;9.166;2022-12-20T02:18:04;4.90;99.90
14357;DHT22;7262;48.764;9.166;2022-12-20T02:29:12;5.00;99.90
14357;DHT22;7262;48.764;9.166;2022-12-20T02:31:43;5.00;99.90
14357;DHT22;7262;48.764;9.166;2022-12-20T02:34:12;4.90;99.90
14357;DHT22;7262;48.764;9.166;2022-12-20T02:36:41;4.90;99.90
14357;DHT22;7262;48.764;9.166;2022-12-20T02:39:08;4.90;99.90
14357;DHT22;7262;48.764;9.166;2022-12-20T02:41:35;4.90;99.90
14357;DHT22;7262;48.764;9.166;2022-12-20T02:44:06;4.90;99.90
14357;DHT22;7262;48.764;9.166;2022-12-20T02:46:53;4.90;99.90
14357;DHT22;7262;48.764;9.166;2022-12-20T02:49:22;4.90;99.90
14357;DHT22;7262;48.764;9.166;2022-12-20T02:51:49;4.90;99.90
14357;DHT22;7262;48.764;9.166;2022-12-20T02:54:17;4.90;99.90
14357;DHT22;7262;48.764;9.166;2022-12-20T02:56:46;4.90;99.90
14357;DHT22;7262;48.764;9.166;2022-12-20T02:59:14;4.90;99.90
14357;DHT22;7262;48.764;9.166;2022-12-20T03:01:46;5.00;99.90
14357;DHT22;7262;48.764;9.166;2022-12-20T03:04:16;4.90;99.90
14357;DHT22;7262;48.764;9.166;2022-12-20T03:06:54;4.90;99.90
14357;DHT22;7262;48.764;9.166;2022-12-20T03:09:23;4.90;99.90
14357;DHT22;7262;48.764;9.166;2022-12-20T03:11:50;4.90;99.90
14357;DHT22;7262;48.764;9.166;2022-12-20T03:14:17;4.90;99.90
14357;DHT22;7262;48.764;9.166;2022-12-20T03:16:45;4.90;99.90
14357;DHT22;7262;48.764;9.166;2022-12-20T03:19:12;4.90;99.90
14357;DHT22;7262;48.764;9.166;2022-12-20T03:21:40;4.90;99.90
14357;DHT22;7262;48.764;9.166;2022-12-20T03:24:07;5.00;99.90
14357;DHT22;7262;48.764;9.166;2022-12-20T03:26:35;5.10;99.90
14357;DHT22;7262;48.764;9.166;2022-12-20T03:29:02;5.10;99.90
14357;DHT22;7262;48.764;9.166;2022-12-20T03:31:31;5.20;99.90
14357;DHT22;7262;48.764;9.166;2022-12-20T03:33:58;5.20;99.90
14357;DHT22;7262;48.764;9.166;2022-12-20T03:36:25;5.30;99.90
14357;DHT22;7262;48.764;9.166;2022-12-20T03:38:53;5.30;99.90
14357;DHT22;7262;48.764;9.166;2022-12-20T03:41:20;5.20;99.90
14357;DHT22;7262;48.764;9.166;2022-12-20T03:43:48;5.30;99.90
14357;DHT22;7262;48.764;9.166;2022-12-20T03:46:15;5.30;99.90
14357;DHT22;7262;48.764;9.166;2022-12-20T03:48:42;5.30;99.90
14357;DHT22;7262;48.764;9.166;2022-12-20T03:51:09;5.30;99.90
14357;DHT22;7262;48.764;9.166;2022-12-20T03:53:35;5.40;99.90
14357;DHT22;7262;48.764;9.166;2022-12-20T03:56:05;5.40;99.90
14357;DHT22;7262;48.764;9.166;2022-12-20T03:58:31;5.40;99.90
14357;DHT22;7262;48.764;9.166;2022-12-20T04:00:58;5.40;99.90
14357;DHT22;7262;48.764;9.166;2022-12-20T04:03:25;5.40;99.90
14357;DHT22;7262;48.764;9.166;2022-12-20T04:05:53;5.40;99.90
14357;DHT22;7262;48.764;9.166;2022-12-20T04:08:19;5.40;99.90
14357;DHT22;7262;48.764;9.166;2022-12-20T04:10:47;5.40;99.90
14357;DHT22;7262;48.764;9.166;2022-12-20T04:13:33;5.50;99.90
14357;DHT22;7262;48.764;9.166;2022-12-20T04:16:00;5.50;99.90
14357;DHT22;7262;48.764;9.166;2022-12-20T04:18:27;5.50;99.90
14357;DHT22;7262;48.764;9.166;2022-12-20T04:20:53;5.50;99.90
14357;DHT22;7262;48.764;9.166;2022-12-20T04:23:20;5.50;99.90
14357;DHT22;7262;48.764;9.166;2022-12-20T04:25:47;5.50;99.90
14357;DHT22;7262;48.764;9.166;2022-12-20T04:28:14;5.50;99.90
14357;DHT22;7262;48.764;9.166;2022-12-20T04:30:42;5.50;99.90
14357;DHT22;7262;48.764;9.166;2022-12-20T04:33:08;5.60;99.90
14357;DHT22;7262;48.764;9.166;2022-12-20T04:35:35;5.60;99.90
14357;DHT22;7262;48.764;9.166;2022-12-20T04:38:02;5.60;99.90
14357;DHT22;7262;48.764;9.166;2022-12-20T04:40:29;5.50;99.90
14357;DHT22;7262;48.764;9.166;2022-12-20T04:42:56;5.50;99.90
14357;DHT22;7262;48.764;9.166;2022-12-20T04:45:23;5.50;99.90
14357;DHT22;7262;48.764;9.166;2022-12-20T04:47:51;5.50;99.90
14357;DHT22;7262;48.764;9.166;2022-12-20T04:50:17;5.60;99.90
14357;DHT22;7262;48.764;9.166;2022-12-20T04:52:44;5.50;99.90
14357;DHT22;7262;48.764;9.166;2022-12-20T04:55:29;5.60;99.90
14357;DHT22;7262;48.764;9.166;2022-12-20T04:57:55;5.60;99.90
14357;DHT22;7262;48.764;9.166;2022-12-20T05:00:22;5.50;99.90
14357;DHT22;7262;48.764;9.166;2022-12-20T05:02:51;5.50;99.90
14357;DHT22;7262;48.764;9.166;2022-12-20T05:05:18;5.60;99.90
14357;DHT22;7262;48.764;9.166;2022-12-20T05:07:44;5.60;99.90
14357;DHT22;7262;48.764;9.166;2022-12-20T05:10:11;5.70;99.90
14357;DHT22;7262;48.764;9.166;2022-12-20T05:12:38;5.60;99.90
14357;DHT22;7262;48.764;9.166;2022-12-20T05:15:05;5.60;99.90
14357;DHT22;7262;48.764;9.166;2022-12-20T05:17:32;5.60;99.90
14357;DHT22;7262;48.764;9.166;2022-12-20T05:20:01;5.50;99.90
14357;DHT22;7262;48.764;9.166;2022-12-20T05:22:27;5.50;99.90
14357;DHT22;7262;48.764;9.166;2022-12-20T05:25:12;5.50;99.90
14357;DHT22;7262;48.764;9.166;2022-12-20T05:27:56;5.50;99.90
14357;DHT22;7262;48.764;9.166;2022-12-20T05:30:23;5.50;99.90
14357;DHT22;7262;48.764;9.166;2022-12-20T05:32:50;5.50;99.90
14357;DHT22;7262;48.764;9.166;2022-12-20T05:35:19;5.60;99.90
14357;DHT22;7262;48.764;9.166;2022-12-20T05:37:45;5.60;99.90
14357;DHT22;7262;48.764;9.166;2022-12-20T05:40:12;5.70;99.90
14357;DHT22;7262;48.764;9.166;2022-12-20T05:42:40;5.70;99.90
14357;DHT22;7262;48.764;9.166;2022-12-20T05:45:07;5.70;99.90
14357;DHT22;7262;48.764;9.166;2022-12-20T05:47:35;5.70;99.90
14357;DHT22;7262;48.764;9.166;2022-12-20T05:50:03;5.70;99.90
14357;DHT22;7262;48.764;9.166;2022-12-20T05:52:32;5.80;99.90
14357;DHT22;7262;48.764;9.166;2022-12-20T05:54:58;5.80;99.90
14357;DHT22;7262;48.764;9.166;2022-12-20T05:57:25;5.80;99.90
14357;DHT22;7262;48.764;9.166;2022-12-20T05:59:53;5.90;99.90
14357;DHT22;7262;48.764;9.166;2022-12-20T06:02:19;5.90;99.90
14357;DHT22;7262;48.764;9.166;2022-12-20T06:04:46;5.90;99.90
14357;DHT22;7262;48.764;9.166;2022-12-20T06:07:14;5.90;99.90
14357;DHT22;7262;48.764;9.166;2022-12-20T06:09:42;5.90;99.90
14357;DHT22;7262;48.764;9.166;2022-12-20T06:12:11;5.90;99.90
14357;DHT22;7262;48.764;9.166;2022-12-20T06:14:38;5.80;99.90
14357;DHT22;7262;48.764;9.166;2022-12-20T06:17:05;5.80;99.90
14357;DHT22;7262;48.764;9.166;2022-12-20T06:19:31;5.90;99.90
14357;DHT22;7262;48.764;9.166;2022-12-20T06:21:58;5.90;99.90
14357;DHT22;7262;48.764;9.166;2022-12-20T06:24:28;5.80;99.90
14357;DHT22;7262;48.764;9.166;2022-12-20T06:26:56;5.90;99.90
14357;DHT22;7262;48.764;9.166;2022-12-20T06:29:22;6.00;99.90
14357;DHT22;7262;48.764;9.166;2022-12-20T06:31:49;6.00;99.90
14357;DHT22;7262;48.764;9.166;2022-12-20T06:34:16;6.00;99.90
14357;DHT22;7262;48.764;9.166;2022-12-20T06:36:43;6.00;99.90
14357;DHT22;7262;48.764;9.166;2022-12-20T06:39:10;6.00;99.90
14357;DHT22;7262;48.764;9.166;2022-12-20T06:41:36;6.00;99.90
14357;DHT22;7262;48.764;9.166;2022-12-20T06:44:06;6.20;99.90
14357;DHT22;7262;48.764;9.166;2022-12-20T06:46:33;6.30;99.90
14357;DHT22;7262;48.764;9.166;2022-12-20T06:49:02;6.40;99.90
14357;DHT22;7262;48.764;9.166;2022-12-20T06:51:29;6.30;99.90
14357;DHT22;7262;48.764;9.166;2022-12-20T06:53:56;6.30;99.90
14357;DHT22;7262;48.764;9.166;2022-12-20T06:56:22;6.30;99.90
14357;DHT22;7262;48.764;9.166;2022-12-20T06:58:50;6.40;99.90
14357;DHT22;7262;48.764;9.166;2022-12-20T07:01:18;6.40;99.90
14357;DHT22;7262;48.764;9.166;2022-12-20T07:03:45;6.40;99.90
14357;DHT22;7262;48.764;9.166;2022-12-20T07:06:12;6.40;99.90
14357;DHT22;7262;48.764;9.166;2022-12-20T07:08:38;6.50;99.90
14357;DHT22;7262;48.764;9.166;2022-12-20T07:11:06;6.40;99.90
14357;DHT22;7262;48.764;9.166;2022-12-20T07:13:33;6.40;99.90
14357;DHT22;7262;48.764;9.166;2022-12-20T07:16:02;6.20;99.90
14357;DHT22;7262;48.764;9.166;2022-12-20T07:18:30;6.40;99.90
14357;DHT22;7262;48.764;9.166;2022-12-20T07:20:59;6.40;99.90
14357;DHT22;7262;48.764;9.166;2022-12-20T07:23:26;6.40;99.90
14357;DHT22;7262;48.764;9.166;2022-12-20T07:25:53;6.40;99.90
14357;DHT22;7262;48.764;9.166;2022-12-20T07:28:21;6.40;99.90
14357;DHT22;7262;48.764;9.166;2022-12-20T07:30:49;6.40;99.90
14357;DHT22;7262;48.764;9.166;2022-12-20T07:33:16;6.40;99.90
14357;DHT22;7262;48.764;9.166;2022-12-20T07:35:44;6.40;99.90
14357;DHT22;7262;48.764;9.166;2022-12-20T07:38:11;6.50;99.90
14357;DHT22;7262;48.764;9.166;2022-12-20T07:40:39;6.50;99.90
14357;DHT22;7262;48.764;9.166;2022-12-20T07:43:05;6.50;99.90
14357;DHT22;7262;48.764;9.166;2022-12-20T07:45:32;6.50;99.90
14357;DHT22;7262;48.764;9.166;2022-12-20T07:47:59;6.50;99.90
14357;DHT22;7262;48.764;9.166;2022-12-20T07:50:26;6.60;99.90
14357;DHT22;7262;48.764;9.166;2022-12-20T07:52:55;6.70;99.90
14357;DHT22;7262;48.764;9.166;2022-12-20T07:55:22;6.70;99.90
14357;DHT22;7262;48.764;9.166;2022-12-20T07:57:50;6.70;99.90
14357;DHT22;7262;48.764;9.166;2022-12-20T08:00:18;6.80;99.90
14357;DHT22;7262;48.764;9.166;2022-12-20T08:02:46;7.00;99.90
14357;DHT22;7262;48.764;9.166;2022-12-20T08:05:14;7.10;99.90
14357;DHT22;7262;48.764;9.166;2022-12-20T08:07:42;7.30;99.90
14357;DHT22;7262;48.764;9.166;2022-12-20T08:10:12;7.40;99.90
14357;DHT22;7262;48.764;9.166;2022-12-20T08:12:44;7.60;99.90
14357;DHT22;7262;48.764;9.166;2022-12-20T08:15:11;7.60;99.90
14357;DHT22;7262;48.764;9.166;2022-12-20T08:17:38;7.70;99.90
14357;DHT22;7262;48.764;9.166;2022-12-20T08:20:05;7.80;99.90
14357;DHT22;7262;48.764;9.166;2022-12-20T08:22:32;7.80;99.90
14357;DHT22;7262;48.764;9.166;2022-12-20T08:25:00;7.90;99.90
14357;DHT22;7262;48.764;9.166;2022-12-20T08:27:30;8.00;99.90
14357;DHT22;7262;48.764;9.166;2022-12-20T08:29:58;8.00;99.90
14357;DHT22;7262;48.764;9.166;2022-12-20T08:32:25;8.10;99.90
14357;DHT22;7262;48.764;9.166;2022-12-20T08:34:52;8.10;99.90
14357;DHT22;7262;48.764;9.166;2022-12-20T08:37:19;8.10;99.90
14357;DHT22;7262;48.764;9.166;2022-12-20T08:39:46;8.10;99.90
14357;DHT22;7262;48.764;9.166;2022-12-20T08:42:13;8.20;99.90
14357;DHT22;7262;48.764;9.166;2022-12-20T08:44:41;8.20;99.90
14357;DHT22;7262;48.764;9.166;2022-12-20T08:47:08;8.10;99.90
14357;DHT22;7262;48.764;9.166;2022-12-20T08:49:35;8.20;99.90
14357;DHT22;7262;48.764;9.166;2022-12-20T08:52:02;8.20;99.90
14357;DHT22;7262;48.764;9.166;2022-12-20T08:54:28;8.30;99.90
14357;DHT22;7262;48.764;9.166;2022-12-20T08:56:55;8.30;99.90
14357;DHT22;7262;48.764;9.166;2022-12-20T08:59:22;8.30;99.90
14357;DHT22;7262;48.764;9.166;2022-12-20T09:01:51;8.40;99.90
14357;DHT22;7262;48.764;9.166;2022-12-20T09:04:19;8.60;99.90
14357;DHT22;7262;48.764;9.166;2022-12-20T09:06:46;8.60;99.90
14357;DHT22;7262;48.764;9.166;2022-12-20T09:09:12;8.70;99.90
14357;DHT22;7262;48.764;9.166;2022-12-20T09:11:40;8.60;99.90
14357;DHT22;7262;48.764;9.166;2022-12-20T09:14:07;8.60;99.90
14357;DHT22;7262;48.764;9.166;2022-12-20T09:16:34;8.50;99.90
14357;DHT22;7262;48.764;9.166;2022-12-20T09:19:05;8.50;99.90
14357;DHT22;7262;48.764;9.166;2022-12-20T09:21:32;8.50;99.90
14357;DHT22;7262;48.764;9.166;2022-12-20T09:23:59;8.50;99.90
14357;DHT22;7262;48.764;9.166;2022-12-20T09:26:26;8.50;99.90
14357;DHT22;7262;48.764;9.166;2022-12-20T09:28:54;8.40;99.90
14357;DHT22;7262;48.764;9.166;2022-12-20T09:31:22;8.40;99.90
14357;DHT22;7262;48.764;9.166;2022-12-20T09:33:51;8.40;99.90
14357;DHT22;7262;48.764;9.166;2022-12-20T09:36:20;8.40;99.90
14357;DHT22;7262;48.764;9.166;2022-12-20T09:38:47;8.40;99.90
14357;DHT22;7262;48.764;9.166;2022-12-20T09:41:16;8.40;99.90
14357;DHT22;7262;48.764;9.166;2022-12-20T09:43:45;8.40;99.90
14357;DHT22;7262;48.764;9.166;2022-12-20T09:46:14;8.40;99.90
14357;DHT22;7262;48.764;9.166;2022-12-20T09:48:41;8.50;99.90
14357;DHT22;7262;48.764;9.166;2022-12-20T09:51:10;8.50;99.90
14357;DHT22;7262;48.764;9.166;2022-12-20T09:53:45;8.60;99.90
14357;DHT22;7262;48.764;9.166;2022-12-20T09:56:19;8.60;99.90
14357;DHT22;7262;48.764;9.166;2022-12-20T09:58:55;8.70;99.90
14357;DHT22;7262;48.764;9.166;2022-12-20T10:01:26;8.70;99.90
14357;DHT22;7262;48.764;9.166;2022-12-20T10:03:54;8.90;99.90
14357;DHT22;7262;48.764;9.166;2022-12-20T10:06:25;9.00;99.90
14357;DHT22;7262;48.764;9.166;2022-12-20T10:08:59;9.10;99.90
14357;DHT22;7262;48.764;9.166;2022-12-20T10:11:36;9.10;99.90
14357;DHT22;7262;48.764;9.166;2022-12-20T10:14:26;9.00;99.90
14357;DHT22;7262;48.764;9.166;2022-12-20T10:16:57;9.00;99.90
14357;DHT22;7262;48.764;9.166;2022-12-20T10:19:35;9.10;99.90
14357;DHT22;7262;48.764;9.166;2022-12-20T10:22:06;9.00;99.90
14357;DHT22;7262;48.764;9.166;2022-12-20T10:24:36;9.10;99.90
14357;DHT22;7262;48.764;9.166;2022-12-20T10:27:09;9.20;99.90
14357;DHT22;7262;48.764;9.166;2022-12-20T10:29:37;9.10;99.90
14357;DHT22;7262;48.764;9.166;2022-12-20T10:32:04;9.10;99.90
14357;DHT22;7262;48.764;9.166;2022-12-20T10:34:37;9.10;99.90
14357;DHT22;7262;48.764;9.166;2022-12-20T10:37:14;9.10;99.90
14357;DHT22;7262;48.764;9.166;2022-12-20T10:40:02;9.10;99.90
14357;DHT22;7262;48.764;9.166;2022-12-20T10:42:33;9.10;99.90
14357;DHT22;7262;48.764;9.166;2022-12-20T10:45:02;9.00;99.90
14357;DHT22;7262;48.764;9.166;2022-12-20T10:47:34;9.00;99.90
14357;DHT22;7262;48.764;9.166;2022-12-20T10:50:12;9.00;99.90
14357;DHT22;7262;48.764;9.166;2022-12-20T10:52:40;9.00;99.90
14357;DHT22;7262;48.764;9.166;2022-12-20T10:57:49;9.00;99.90
14357;DHT22;7262;48.764;9.166;2022-12-20T11:00:26;9.00;99.90
14357;DHT22;7262;48.764;9.166;2022-12-20T11:03:01;9.10;99.90
14357;DHT22;7262;48.764;9.166;2022-12-20T11:05:28;9.20;99.90
14357;DHT22;7262;48.764;9.166;2022-12-20T11:07:56;9.30;99.90
14357;DHT22;7262;48.764;9.166;2022-12-20T11:10:23;9.40;99.90
14357;DHT22;7262;48.764;9.166;2022-12-20T11:13:02;9.40;99.90
14357;DHT22;7262;48.764;9.166;2022-12-20T11:15:31;9.50;99.90
14357;DHT22;7262;48.764;9.166;2022-12-20T11:17:58;9.50;99.90
14357;DHT22;7262;48.764;9.166;2022-12-20T11:20:28;9.50;99.90
14357;DHT22;7262;48.764;9.166;2022-12-20T11:23:02;9.60;99.90
14357;DHT22;7262;48.764;9.166;2022-12-20T11:25:34;9.60;99.90
14357;DHT22;7262;48.764;9.166;2022-12-20T11:28:10;9.50;99.90
14357;DHT22;7262;48.764;9.166;2022-12-20T11:30:44;9.70;99.90
14357;DHT22;7262;48.764;9.166;2022-12-20T11:35:58;9.70;99.90
14357;DHT22;7262;48.764;9.166;2022-12-20T11:38:30;9.70;99.90
14357;DHT22;7262;48.764;9.166;2022-12-20T11:41:06;9.80;99.90
14357;DHT22;7262;48.764;9.166;2022-12-20T11:43:40;9.80;99.90
14357;DHT22;7262;48.764;9.166;2022-12-20T11:46:15;9.90;99.90
14357;DHT22;7262;48.764;9.166;2022-12-20T11:51:47;10.00;99.90
14357;DHT22;7262;48.764;9.166;2022-12-20T11:54:16;10.10;99.90
14357;DHT22;7262;48.764;9.166;2022-12-20T11:56:47;10.00;99.90
14357;DHT22;7262;48.764;9.166;2022-12-20T11:59:20;10.10;99.90
14357;DHT22;7262;48.764;9.166;2022-12-20T12:01:52;10.00;99.90
14357;DHT22;7262;48.764;9.166;2022-12-20T12:04:23;10.10;99.90
14357;DHT22;7262;48.764;9.166;2022-12-20T12:06:51;10.00;99.90
14357;DHT22;7262;48.764;9.166;2022-12-20T12:09:22;10.10;99.90
14357;DHT22;7262;48.764;9.166;2022-12-20T12:11:50;10.00;99.90
14357;DHT22;7262;48.764;9.166;2022-12-20T12:14:26;10.10;99.90
14357;DHT22;7262;48.764;9.166;2022-12-20T12:16:54;10.00;99.90
14357;DHT22;7262;48.764;9.166;2022-12-20T12:19:25;9.90;99.90
14357;DHT22;7262;48.764;9.166;2022-12-20T12:24:59;9.90;99.90
14357;DHT22;7262;48.764;9.166;2022-12-20T12:27:27;9.80;99.90
14357;DHT22;7262;48.764;9.166;2022-12-20T12:29:57;9.90;99.90
14357;DHT22;7262;48.764;9.166;2022-12-20T12:32:25;9.70;99.90
14357;DHT22;7262;48.764;9.166;2022-12-20T12:35:00;9.70;99.90
14357;DHT22;7262;48.764;9.166;2022-12-20T12:37:33;9.70;99.90
14357;DHT22;7262;48.764;9.166;2022-12-20T12:40:10;9.90;99.90
14357;DHT22;7262;48.764;9.166;2022-12-20T12:42:45;9.90;99.90
14357;DHT22;7262;48.764;9.166;2022-12-20T12:45:18;9.90;99.90
14357;DHT22;7262;48.764;9.166;2022-12-20T12:47:48;9.90;99.90
14357;DHT22;7262;48.764;9.166;2022-12-20T12:50:17;9.90;99.90
14357;DHT22;7262;48.764;9.166;2022-12-20T12:52:47;10.00;99.90
14357;DHT22;7262;48.764;9.166;2022-12-20T12:55:34;9.90;99.90
14357;DHT22;7262;48.764;9.166;2022-12-20T12:58:11;10.00;99.90
14357;DHT22;7262;48.764;9.166;2022-12-20T13:00:51;10.00;99.90
14357;DHT22;7262;48.764;9.166;2022-12-20T13:08:45;10.10;99.90
14357;DHT22;7262;48.764;9.166;2022-12-20T13:11:14;10.10;99.90
14357;DHT22;7262;48.764;9.166;2022-12-20T13:16:37;10.10;99.90
14357;DHT22;7262;48.764;9.166;2022-12-20T13:19:13;10.30;99.90
14357;DHT22;7262;48.764;9.166;2022-12-20T13:21:41;10.20;99.90
14357;DHT22;7262;48.764;9.166;2022-12-20T13:27:17;10.20;99.90
14357;DHT22;7262;48.764;9.166;2022-12-20T13:29:51;10.10;99.90
14357;DHT22;7262;48.764;9.166;2022-12-20T13:35:12;10.10;99.90
14357;DHT22;7262;48.764;9.166;2022-12-20T13:37:54;10.20;99.90
14357;DHT22;7262;48.764;9.166;2022-12-20T13:40:22;10.00;99.90
14357;DHT22;7262;48.764;9.166;2022-12-20T13:42:52;10.00;99.90
14357;DHT22;7262;48.764;9.166;2022-12-20T13:45:22;10.00;99.90
14357;DHT22;7262;48.764;9.166;2022-12-20T13:47:51;10.00;99.90
14357;DHT22;7262;48.764;9.166;2022-12-20T13:50:26;9.90;99.90
14357;DHT22;7262;48.764;9.166;2022-12-20T13:52:53;9.90;99.90
14357;DHT22;7262;48.764;9.166;2022-12-20T13:55:35;9.90;99.90
14357;DHT22;7262;48.764;9.166;2022-12-20T13:58:10;9.90;99.90
14357;DHT22;7262;48.764;9.166;2022-12-20T14:00:37;9.90;99.90
14357;DHT22;7262;48.764;9.166;2022-12-20T14:03:05;10.00;99.90
14357;DHT22;7262;48.764;9.166;2022-12-20T14:05:37;9.90;99.90
14357;DHT22;7262;48.764;9.166;2022-12-20T14:08:07;10.00;99.90
14357;DHT22;7262;48.764;9.166;2022-12-20T14:10:34;9.80;99.90
14357;DHT22;7262;48.764;9.166;2022-12-20T14:13:02;10.00;99.90
14357;DHT22;7262;48.764;9.166;2022-12-20T14:15:39;10.00;99.90
14357;DHT22;7262;48.764;9.166;2022-12-20T14:18:14;10.00;99.90
14357;DHT22;7262;48.764;9.166;2022-12-20T14:20:44;10.00;99.90
14357;DHT22;7262;48.764;9.166;2022-12-20T14:23:13;10.00;99.90
14357;DHT22;7262;48.764;9.166;2022-12-20T14:25:42;10.00;99.90
14357;DHT22;7262;48.764;9.166;2022-12-20T14:28:14;10.00;99.90
14357;DHT22;7262;48.764;9.166;2022-12-20T14:30:42;10.00;99.90
14357;DHT22;7262;48.764;9.166;2022-12-20T14:33:18;9.90;99.90
14357;DHT22;7262;48.764;9.166;2022-12-20T14:35:48;9.90;99.90
14357;DHT22;7262;48.764;9.166;2022-12-20T14:38:23;9.80;99.90
14357;DHT22;7262;48.764;9.166;2022-12-20T14:41:03;9.80;99.90
14357;DHT22;7262;48.764;9.166;2022-12-20T14:43:31;9.80;99.90
14357;DHT22;7262;48.764;9.166;2022-12-20T14:46:12;9.80;99.90
14357;DHT22;7262;48.764;9.166;2022-12-20T14:48:41;9.70;99.90
14357;DHT22;7262;48.764;9.166;2022-12-20T14:51:09;9.70;99.90
14357;DHT22;7262;48.764;9.166;2022-12-20T14:53:36;9.70;99.90
14357;DHT22;7262;48.764;9.166;2022-12-20T14:56:04;9.60;99.90
14357;DHT22;7262;48.764;9.166;2022-12-20T14:58:32;9.50;99.90
14357;DHT22;7262;48.764;9.166;2022-12-20T15:01:00;9.60;99.90
14357;DHT22;7262;48.764;9.166;2022-12-20T15:03:28;9.60;99.90
14357;DHT22;7262;48.764;9.166;2022-12-20T15:05:58;9.50;99.90
14357;DHT22;7262;48.764;9.166;2022-12-20T15:08:27;9.50;99.90
14357;DHT22;7262;48.764;9.166;2022-12-20T15:10:55;9.50;99.90
14357;DHT22;7262;48.764;9.166;2022-12-20T15:13:24;9.60;99.90
14357;DHT22;7262;48.764;9.166;2022-12-20T15:15:52;9.40;99.90
14357;DHT22;7262;48.764;9.166;2022-12-20T15:18:20;9.50;99.90
14357;DHT22;7262;48.764;9.166;2022-12-20T15:20:53;9.40;99.90
14357;DHT22;7262;48.764;9.166;2022-12-20T15:23:23;9.40;99.90
14357;DHT22;7262;48.764;9.166;2022-12-20T15:25:52;9.20;99.90
14357;DHT22;7262;48.764;9.166;2022-12-20T15:32:44;9.30;99.90
14357;DHT22;7262;48.764;9.166;2022-12-20T15:34:40;9.30;99.90
14357;DHT22;7262;48.764;9.166;2022-12-20T15:40:32;9.30;99.90
14357;DHT22;7262;48.764;9.166;2022-12-20T15:43:00;9.30;99.90
14357;DHT22;7262;48.764;9.166;2022-12-20T15:45:27;9.30;99.90
14357;DHT22;7262;48.764;9.166;2022-12-20T15:47:55;9.30;99.90
14357;DHT22;7262;48.764;9.166;2022-12-20T15:50:22;9.30;99.90
14357;DHT22;7262;48.764;9.166;2022-12-20T15:52:49;9.30;99.90
14357;DHT22;7262;48.764;9.166;2022-12-20T15:55:16;9.30;99.90
14357;DHT22;7262;48.764;9.166;2022-12-20T15:57:43;9.30;99.90
14357;DHT22;7262;48.764;9.166;2022-12-20T16:00:15;9.30;99.90
14357;DHT22;7262;48.764;9.166;2022-12-20T16:02:42;9.30;99.90
14357;DHT22;7262;48.764;9.166;2022-12-20T16:05:10;9.30;99.90
14357;DHT22;7262;48.764;9.166;2022-12-20T16:07:37;9.20;99.90
14357;DHT22;7262;48.764;9.166;2022-12-20T16:10:05;9.20;99.90
14357;DHT22;7262;48.764;9.166;2022-12-20T16:12:32;9.20;99.90
14357;DHT22;7262;48.764;9.166;2022-12-20T16:15:00;9.20;99.90
14357;DHT22;7262;48.764;9.166;2022-12-20T16:17:28;9.20;99.90
14357;DHT22;7262;48.764;9.166;2022-12-20T16:19:55;9.10;99.90
14357;DHT22;7262;48.764;9.166;2022-12-20T16:22:22;9.10;99.90
14357;DHT22;7262;48.764;9.166;2022-12-20T16:24:50;9.10;99.90
14357;DHT22;7262;48.764;9.166;2022-12-20T16:27:17;9.00;99.90
14357;DHT22;7262;48.764;9.166;2022-12-20T16:29:44;9.00;99.90
14357;DHT22;7262;48.764;9.166;2022-12-20T16:32:12;9.00;99.90
14357;DHT22;7262;48.764;9.166;2022-12-20T16:34:41;9.00;99.90
14357;DHT22;7262;48.764;9.166;2022-12-20T16:37:07;9.00;99.90
14357;DHT22;7262;48.764;9.166;2022-12-20T16:39:35;9.00;99.90
14357;DHT22;7262;48.764;9.166;2022-12-20T16:42:02;9.00;99.90
14357;DHT22;7262;48.764;9.166;2022-12-20T16:44:31;9.00;99.90
14357;DHT22;7262;48.764;9.166;2022-12-20T16:46:58;8.90;99.90
14357;DHT22;7262;48.764;9.166;2022-12-20T16:49:25;9.00;99.90
14357;DHT22;7262;48.764;9.166;2022-12-20T16:51:55;9.00;99.90
14357;DHT22;7262;48.764;9.166;2022-12-20T16:54:21;9.00;99.90